createdAt,value
2023-04-26T00:00:19.384Z,942.77
2023-04-26T00:02:45.901Z,942.75
2023-04-26T00:05:12.387Z,942.71
2023-04-26T00:07:38.697Z,942.69
2023-04-26T00:10:05.207Z,942.62
2023-04-26T00:12:31.662Z,942.59
2023-04-26T00:14:58.090Z,942.54
2023-04-26T00:17:24.599Z,942.52
2023-04-26T00:19:51.033Z,942.50
2023-04-26T00:22:17.590Z,942.44
2023-04-26T00:24:43.985Z,942.41
2023-04-26T00:27:10.415Z,942.43
2023-04-26T00:29:36.869Z,942.38
2023-04-26T00:32:03.705Z,942.38
2023-04-26T00:34:30.103Z,942.35
2023-04-26T00:36:56.491Z,942.35
2023-04-26T00:39:22.898Z,942.32
2023-04-26T00:41:49.395Z,942.35
2023-04-26T00:44:15.874Z,942.30
2023-04-26T00:46:42.323Z,942.28
2023-04-26T00:49:08.834Z,942.23
2023-04-26T00:51:35.301Z,942.29
2023-04-26T00:54:01.719Z,942.34
2023-04-26T00:56:28.238Z,942.35
2023-04-26T00:58:55.002Z,942.30
2023-04-26T01:01:21.202Z,942.31
2023-04-26T01:03:47.765Z,942.31
2023-04-26T01:06:14.005Z,942.31
2023-04-26T01:08:40.447Z,942.31
2023-04-26T01:11:06.810Z,942.36
2023-04-26T01:13:33.245Z,942.35
2023-04-26T01:15:59.730Z,942.36
2023-04-26T01:18:26.249Z,942.38
2023-04-26T01:20:52.669Z,942.41
2023-04-26T01:23:19.083Z,942.32
2023-04-26T01:25:45.592Z,942.26
2023-04-26T01:28:12.012Z,942.15
2023-04-26T01:30:38.573Z,942.09
2023-04-26T01:33:05.173Z,942.10
2023-04-26T01:35:31.507Z,942.14
2023-04-26T01:37:57.840Z,942.21
2023-04-26T01:40:24.332Z,942.24
2023-04-26T01:42:50.803Z,942.19
2023-04-26T01:45:17.150Z,942.20
2023-04-26T01:47:43.731Z,942.24
2023-04-26T01:50:10.165Z,942.38
2023-04-26T01:52:36.567Z,942.42
2023-04-26T01:55:03.014Z,942.40
2023-04-26T01:57:29.520Z,942.39
2023-04-26T01:59:55.941Z,942.38
2023-04-26T02:02:22.557Z,942.32
2023-04-26T02:04:49.021Z,942.31
2023-04-26T02:07:15.409Z,942.17
2023-04-26T02:09:41.823Z,942.14
2023-04-26T02:12:08.280Z,942.22
2023-04-26T02:14:34.753Z,942.11
2023-04-26T02:17:01.146Z,942.15
2023-04-26T02:19:27.650Z,942.09
2023-04-26T02:21:54.048Z,942.06
2023-04-26T02:24:20.466Z,942.07
2023-04-26T02:26:47.016Z,942.07
2023-04-26T02:29:13.425Z,942.06
2023-04-26T02:31:39.821Z,942.06
2023-04-26T02:34:06.498Z,942.10
2023-04-26T02:36:33.086Z,942.09
2023-04-26T02:38:59.489Z,942.14
2023-04-26T02:41:26.011Z,942.13
2023-04-26T02:43:52.458Z,942.16
2023-04-26T02:46:18.947Z,942.18
2023-04-26T02:48:45.406Z,942.18
2023-04-26T02:51:11.791Z,942.19
2023-04-26T02:53:38.209Z,942.12
2023-04-26T02:56:04.617Z,942.02
2023-04-26T02:58:30.986Z,941.91
2023-04-26T03:00:58.298Z,941.89
2023-04-26T03:03:23.960Z,941.92
2023-04-26T03:05:50.192Z,941.95
2023-04-26T03:08:16.581Z,941.94
2023-04-26T03:10:43.006Z,941.97
2023-04-26T03:13:09.512Z,941.99
2023-04-26T03:15:35.932Z,941.98
2023-04-26T03:18:02.375Z,942.06
2023-04-26T03:20:28.687Z,942.10
2023-04-26T03:22:55.166Z,941.97
2023-04-26T03:25:21.669Z,941.97
2023-04-26T03:27:48.139Z,941.90
2023-04-26T03:30:14.562Z,941.85
2023-04-26T03:32:41.087Z,941.85
2023-04-26T03:35:07.627Z,941.93
2023-04-26T03:37:33.987Z,941.91
2023-04-26T03:40:00.419Z,941.95
2023-04-26T03:42:26.830Z,941.95
2023-04-26T03:44:53.224Z,941.99
2023-04-26T03:47:19.653Z,941.92
2023-04-26T03:49:46.023Z,941.99
2023-04-26T03:52:12.424Z,942.07
2023-04-26T03:54:38.804Z,942.09
2023-04-26T03:57:05.224Z,942.13
2023-04-26T03:59:31.643Z,942.09
2023-04-26T04:01:58.075Z,942.14
2023-04-26T04:04:24.761Z,942.15
2023-04-26T04:06:50.917Z,942.19
2023-04-26T04:09:17.329Z,942.22
2023-04-26T04:11:44.791Z,942.20
2023-04-26T04:14:10.229Z,942.20
2023-04-26T04:16:36.651Z,942.23
2023-04-26T04:19:03.024Z,942.29
2023-04-26T04:21:29.445Z,942.33
2023-04-26T04:23:55.862Z,942.26
2023-04-26T04:26:22.393Z,942.37
2023-04-26T04:28:48.733Z,942.34
2023-04-26T04:31:15.208Z,942.30
2023-04-26T04:33:41.589Z,942.36
2023-04-26T04:36:08.060Z,942.38
2023-04-26T04:38:34.503Z,942.45
2023-04-26T04:41:00.959Z,942.45
2023-04-26T04:43:27.313Z,942.40
2023-04-26T04:45:53.783Z,942.40
2023-04-26T04:48:20.180Z,942.47
2023-04-26T04:50:46.592Z,942.47
2023-04-26T04:53:13.104Z,942.36
2023-04-26T04:55:39.544Z,942.47
2023-04-26T04:58:06.000Z,942.37
2023-04-26T05:00:32.462Z,942.44
2023-04-26T05:02:58.937Z,942.43
2023-04-26T05:05:25.340Z,942.47
2023-04-26T05:07:51.714Z,942.43
2023-04-26T05:10:18.152Z,942.50
2023-04-26T05:12:44.632Z,942.48
2023-04-26T05:15:11.275Z,942.46
2023-04-26T05:17:37.968Z,942.42
2023-04-26T05:20:04.256Z,942.48
2023-04-26T05:22:30.653Z,942.47
2023-04-26T05:24:57.060Z,942.47
2023-04-26T05:27:23.428Z,942.56
2023-04-26T05:29:50.364Z,942.54
2023-04-26T05:32:16.758Z,942.57
2023-04-26T05:34:43.193Z,942.59
2023-04-26T05:37:11.759Z,942.59
2023-04-26T05:39:36.099Z,942.59
2023-04-26T05:42:02.593Z,942.57
2023-04-26T05:44:29.252Z,942.58
2023-04-26T05:46:55.769Z,942.61
2023-04-26T05:49:23.261Z,942.64
2023-04-26T05:51:49.698Z,942.66
2023-04-26T05:54:16.134Z,942.68
2023-04-26T05:56:42.488Z,942.62
2023-04-26T05:59:08.912Z,942.64
2023-04-26T06:01:35.689Z,942.71
2023-04-26T06:04:02.496Z,942.74
2023-04-26T06:06:28.650Z,942.78
2023-04-26T06:08:55.017Z,942.69
2023-04-26T06:11:21.682Z,942.72
2023-04-26T06:13:47.988Z,942.71
2023-04-26T06:16:14.415Z,942.74
2023-04-26T06:18:43.054Z,942.76
2023-04-26T06:21:07.275Z,942.75
2023-04-26T06:23:33.817Z,942.73
2023-04-26T06:26:00.227Z,942.72
2023-04-26T06:28:26.605Z,942.71
2023-04-26T06:30:53.118Z,942.69
2023-04-26T06:33:19.490Z,942.65
2023-04-26T06:35:45.926Z,942.62
2023-04-26T06:38:14.649Z,942.62
2023-04-26T06:40:38.796Z,942.67
2023-04-26T06:43:05.118Z,942.66
2023-04-26T06:45:31.483Z,942.68
2023-04-26T06:47:58.054Z,942.64
2023-04-26T06:50:24.400Z,942.64
2023-04-26T06:52:50.818Z,942.64
2023-04-26T06:55:17.212Z,942.71
2023-04-26T06:57:43.669Z,942.66
2023-04-26T07:00:10.117Z,942.76
2023-04-26T07:02:36.593Z,942.72
2023-04-26T07:05:03.114Z,942.74
2023-04-26T07:07:29.353Z,942.70
2023-04-26T07:09:55.817Z,942.72
2023-04-26T07:12:22.209Z,942.75
2023-04-26T07:14:48.676Z,942.69
2023-04-26T07:17:16.067Z,942.74
2023-04-26T07:19:42.508Z,942.78
2023-04-26T07:22:08.963Z,942.82
2023-04-26T07:24:35.290Z,942.77
2023-04-26T07:27:01.879Z,942.87
2023-04-26T07:29:28.636Z,942.75
2023-04-26T07:31:54.698Z,942.89
2023-04-26T07:34:21.142Z,942.91
2023-04-26T07:36:47.841Z,942.85
2023-04-26T07:39:14.208Z,942.88
2023-04-26T07:41:42.513Z,942.98
2023-04-26T07:44:07.050Z,942.97
2023-04-26T07:46:33.585Z,942.92
2023-04-26T07:48:59.963Z,942.94
2023-04-26T07:51:26.377Z,942.83
2023-04-26T07:53:53.075Z,942.93
2023-04-26T07:56:19.155Z,942.95
2023-04-26T07:58:45.616Z,942.96
2023-04-26T08:01:12.046Z,942.88
2023-04-26T08:03:38.804Z,942.94
2023-04-26T08:06:05.224Z,942.93
2023-04-26T08:08:31.449Z,942.94
2023-04-26T08:10:57.858Z,943.00
2023-04-26T08:13:26.350Z,942.96
2023-04-26T08:15:50.811Z,942.98
2023-04-26T08:18:17.196Z,942.85
2023-04-26T08:20:43.678Z,942.94
2023-04-26T08:23:10.052Z,942.92
2023-04-26T08:25:36.417Z,942.93
2023-04-26T08:28:02.836Z,942.95
2023-04-26T08:30:29.348Z,942.94
2023-04-26T08:32:55.791Z,942.90
2023-04-26T08:35:22.247Z,942.96
2023-04-26T08:37:48.606Z,942.92
2023-04-26T08:40:15.305Z,942.89
2023-04-26T08:42:43.948Z,942.91
2023-04-26T08:45:10.340Z,942.87
2023-04-26T08:47:36.745Z,942.93
2023-04-26T08:50:03.114Z,942.93
2023-04-26T08:52:29.485Z,942.89
2023-04-26T08:54:55.920Z,942.88
2023-04-26T08:57:22.441Z,942.97
2023-04-26T08:59:48.804Z,942.96
2023-04-26T09:02:15.202Z,942.93
2023-04-26T09:04:41.786Z,942.96
2023-04-26T09:07:08.116Z,942.97
2023-04-26T09:09:34.529Z,943.00
2023-04-26T09:12:00.976Z,942.95
2023-04-26T09:14:27.342Z,943.05
2023-04-26T09:16:53.727Z,943.00
2023-04-26T09:19:20.140Z,943.04
2023-04-26T09:21:46.573Z,943.05
2023-04-26T09:24:12.925Z,943.01
2023-04-26T09:26:39.341Z,942.98
2023-04-26T09:29:05.721Z,943.01
2023-04-26T09:31:32.173Z,942.93
2023-04-26T09:33:58.524Z,942.95
2023-04-26T09:36:24.933Z,943.01
2023-04-26T09:38:52.406Z,943.00
2023-04-26T09:41:18.624Z,942.93
2023-04-26T09:43:44.996Z,942.95
2023-04-26T09:46:12.521Z,942.96
2023-04-26T09:48:38.879Z,942.92
2023-04-26T09:51:05.274Z,942.93
2023-04-26T09:53:31.746Z,942.84
2023-04-26T09:55:58.153Z,942.86
2023-04-26T09:58:24.639Z,942.99
2023-04-26T10:00:51.116Z,942.94
2023-04-26T10:03:17.526Z,942.92
2023-04-26T10:05:44.209Z,942.90
2023-04-26T10:08:10.750Z,942.84
2023-04-26T10:10:37.150Z,942.92
2023-04-26T10:13:03.554Z,942.93
2023-04-26T10:15:29.969Z,942.85
2023-04-26T10:17:56.367Z,942.92
2023-04-26T10:20:22.741Z,942.86
2023-04-26T10:22:49.151Z,942.86
2023-04-26T10:25:15.583Z,942.87
2023-04-26T10:27:41.987Z,942.75
2023-04-26T10:30:08.407Z,942.77
2023-04-26T10:32:34.816Z,942.81
2023-04-26T10:35:01.249Z,942.75
2023-04-26T10:37:27.618Z,942.80
2023-04-26T10:39:54.073Z,942.70
2023-04-26T10:42:21.900Z,942.78
2023-04-26T10:44:46.885Z,942.81
2023-04-26T10:47:13.284Z,942.65
2023-04-26T10:49:39.696Z,942.79
2023-04-26T10:52:06.074Z,942.73
2023-04-26T10:54:32.492Z,942.61
2023-04-26T10:56:58.870Z,942.66
2023-04-26T10:59:39.798Z,942.65
2023-04-26T11:01:51.797Z,942.59
2023-04-26T11:04:18.284Z,942.67
2023-04-26T11:06:45.117Z,942.63
2023-04-26T11:09:11.878Z,942.62
2023-04-26T11:11:38.714Z,942.69
2023-04-26T11:14:05.161Z,942.61
2023-04-26T11:16:34.563Z,942.63
2023-04-26T11:21:51.675Z,942.66
2023-04-26T11:24:22.328Z,942.63
2023-04-26T11:26:48.748Z,942.59
2023-04-26T11:29:16.127Z,942.60
2023-04-26T11:34:27.908Z,942.69
2023-04-26T11:36:56.723Z,942.64
2023-04-26T11:39:24.106Z,942.62
2023-04-26T11:41:52.884Z,942.63
2023-04-26T11:44:22.415Z,942.58
2023-04-26T11:46:53.317Z,942.66
2023-04-26T11:49:20.978Z,942.58
2023-04-26T11:51:49.575Z,942.60
2023-04-26T11:54:16.121Z,942.56
2023-04-26T11:56:42.893Z,942.53
2023-04-26T11:59:09.335Z,942.61
2023-04-26T12:01:36.233Z,942.60
2023-04-26T12:04:03.722Z,942.65
2023-04-26T12:06:30.107Z,942.64
2023-04-26T12:08:56.551Z,942.64
2023-04-26T12:11:23.473Z,942.51
2023-04-26T12:13:51.937Z,942.51
2023-04-26T12:16:26.180Z,942.57
2023-04-26T12:18:46.834Z,942.52
2023-04-26T12:21:13.590Z,942.57
2023-04-26T12:23:40.099Z,942.59
2023-04-26T12:26:06.989Z,942.51
2023-04-26T12:31:19.776Z,942.54
2023-04-26T12:33:46.182Z,942.46
2023-04-26T12:36:25.150Z,942.47
2023-04-26T12:38:52.065Z,942.41
2023-04-26T12:41:18.980Z,942.40
2023-04-26T12:43:45.897Z,942.40
2023-04-26T12:46:14.639Z,942.44
2023-04-26T12:48:41.383Z,942.49
2023-04-26T12:51:09.296Z,942.45
2023-04-26T12:53:41.383Z,942.58
2023-04-26T12:56:25.507Z,942.52
2023-04-26T12:58:53.982Z,942.56
2023-04-26T13:01:29.918Z,942.52
2023-04-26T13:03:57.452Z,942.56
2023-04-26T13:06:23.781Z,942.56
2023-04-26T13:08:53.442Z,942.54
2023-04-26T13:11:19.856Z,942.59
2023-04-26T13:13:46.702Z,942.75
2023-04-26T13:16:13.597Z,942.72
2023-04-26T13:18:39.807Z,942.72
2023-04-26T13:21:10.780Z,942.72
2023-04-26T13:23:42.239Z,942.72
2023-04-26T13:26:09.637Z,942.74
2023-04-26T13:28:44.786Z,942.82
2023-04-26T13:31:11.746Z,942.85
2023-04-26T13:33:40.430Z,942.83
2023-04-26T13:36:07.939Z,942.87
2023-04-26T13:38:36.344Z,942.84
2023-04-26T13:41:03.784Z,942.94
2023-04-26T13:43:31.149Z,942.94
2023-04-26T13:45:59.722Z,943.02
2023-04-26T13:48:27.524Z,942.93
2023-04-26T13:50:54.224Z,942.94
2023-04-26T13:53:20.665Z,943.03
2023-04-26T13:55:47.084Z,943.03
2023-04-26T13:58:13.676Z,943.14
2023-04-26T14:00:40.126Z,943.16
2023-04-26T14:03:06.599Z,943.09
2023-04-26T14:05:32.914Z,943.17
2023-04-26T14:07:59.449Z,943.18
2023-04-26T14:10:25.943Z,943.24
2023-04-26T14:12:52.316Z,943.15
2023-04-26T14:15:18.765Z,943.38
2023-04-26T14:17:45.139Z,943.35
2023-04-26T14:20:11.517Z,943.39
2023-04-26T14:22:37.931Z,943.34
2023-04-26T14:25:04.330Z,943.36
2023-04-26T14:27:30.747Z,943.43
2023-04-26T14:29:57.145Z,943.44
2023-04-26T14:32:23.652Z,943.49
2023-04-26T14:34:50.086Z,943.62
2023-04-26T14:37:16.448Z,943.53
2023-04-26T14:39:42.873Z,943.58
2023-04-26T14:42:09.321Z,943.51
2023-04-26T14:44:35.755Z,943.46
2023-04-26T14:47:02.151Z,943.72
2023-04-26T14:49:28.540Z,943.75
2023-04-26T14:51:55.042Z,943.64
2023-04-26T14:54:21.461Z,943.79
2023-04-26T14:56:47.878Z,943.79
2023-04-26T14:59:14.314Z,943.76
2023-04-26T15:01:40.697Z,943.91
2023-04-26T15:04:07.313Z,943.91
2023-04-26T15:06:33.536Z,943.91
2023-04-26T15:08:59.900Z,944.04
2023-04-26T15:11:28.825Z,944.05
2023-04-26T15:13:55.202Z,944.09
2023-04-26T15:16:21.822Z,944.15
2023-04-26T15:18:48.163Z,944.16
2023-04-26T15:21:14.529Z,944.16
2023-04-26T15:23:40.894Z,944.25
2023-04-26T15:26:07.380Z,944.33
2023-04-26T15:28:33.793Z,944.35
2023-04-26T15:31:00.557Z,944.28
2023-04-26T15:33:26.892Z,944.31
2023-04-26T15:35:53.313Z,944.44
2023-04-26T15:38:19.783Z,944.47
2023-04-26T15:40:46.195Z,944.50
2023-04-26T15:43:12.556Z,944.40
2023-04-26T15:45:38.973Z,944.49
2023-04-26T15:48:05.516Z,944.48
2023-04-26T15:50:32.600Z,944.52
2023-04-26T15:52:59.000Z,944.61
2023-04-26T15:55:25.408Z,944.63
2023-04-26T15:57:51.807Z,944.65
2023-04-26T16:00:18.391Z,944.74
2023-04-26T16:02:45.123Z,944.73
2023-04-26T16:05:11.249Z,944.82
2023-04-26T16:07:37.511Z,944.79
2023-04-26T16:10:04.039Z,944.74
2023-04-26T16:12:30.510Z,944.84
2023-04-26T16:14:56.920Z,944.80
2023-04-26T16:17:23.385Z,944.82
2023-04-26T16:19:49.890Z,944.91
2023-04-26T16:22:16.344Z,944.93
2023-04-26T16:24:42.789Z,945.00
2023-04-26T16:27:09.237Z,944.96
2023-04-26T16:29:35.756Z,945.02
2023-04-26T16:32:02.245Z,945.12
2023-04-26T16:34:28.619Z,945.13
2023-04-26T16:36:55.066Z,945.08
2023-04-26T16:39:21.580Z,945.07
2023-04-26T16:41:48.097Z,945.04
2023-04-26T16:44:14.592Z,945.17
2023-04-26T16:46:41.125Z,945.20
2023-04-26T16:49:07.490Z,945.25
2023-04-26T16:51:33.907Z,945.30
2023-04-26T16:54:00.295Z,945.39
2023-04-26T16:56:26.713Z,945.43
2023-04-26T16:58:53.084Z,945.39
2023-04-26T17:01:20.664Z,945.44
2023-04-26T17:03:47.133Z,945.45
2023-04-26T17:06:13.562Z,945.48
2023-04-26T17:08:40.120Z,945.57
2023-04-26T17:11:06.739Z,945.62
2023-04-26T17:13:33.150Z,945.69
2023-04-26T17:15:59.635Z,945.62
2023-04-26T17:18:26.016Z,945.77
2023-04-26T17:20:52.453Z,945.81
2023-04-26T17:23:19.084Z,945.82
2023-04-26T17:25:45.289Z,945.88
2023-04-26T17:28:11.719Z,945.88
2023-04-26T17:30:38.163Z,945.91
2023-04-26T17:33:04.914Z,945.91
2023-04-26T17:35:31.268Z,945.91
2023-04-26T17:37:57.657Z,945.97
2023-04-26T17:40:24.045Z,945.95
2023-04-26T17:42:50.492Z,945.90
2023-04-26T17:45:16.923Z,945.89
2023-04-26T17:47:43.333Z,946.03
2023-04-26T17:50:09.771Z,946.11
2023-04-26T17:52:36.139Z,946.08
2023-04-26T17:55:02.831Z,946.15
2023-04-26T17:57:29.244Z,946.25
2023-04-26T17:59:55.726Z,946.27
2023-04-26T18:02:22.110Z,946.38
2023-04-26T18:04:48.611Z,946.43
2023-04-26T18:07:14.942Z,946.50
2023-04-26T18:09:41.361Z,946.56
2023-04-26T18:12:07.799Z,946.60
2023-04-26T18:14:34.220Z,946.64
2023-04-26T18:17:00.850Z,946.71
2023-04-26T18:19:27.306Z,946.73
2023-04-26T18:21:53.679Z,946.76
2023-04-26T18:24:20.114Z,946.81
2023-04-26T18:26:46.638Z,946.82
2023-04-26T18:29:13.349Z,946.84
2023-04-26T18:31:39.892Z,946.82
2023-04-26T18:34:06.250Z,946.87
2023-04-26T18:36:32.645Z,946.86
2023-04-26T18:39:00.874Z,946.86
2023-04-26T18:41:25.576Z,946.90
2023-04-26T18:43:51.977Z,946.91
2023-04-26T18:46:18.531Z,946.94
2023-04-26T18:48:44.943Z,946.87
2023-04-26T18:51:11.311Z,946.91
2023-04-26T18:53:37.974Z,946.93
2023-04-26T18:56:04.355Z,946.91
2023-04-26T18:58:30.797Z,946.98
2023-04-26T19:00:57.277Z,947.05
2023-04-26T19:03:23.937Z,946.99
2023-04-26T19:05:50.093Z,947.01
2023-04-26T19:08:16.558Z,946.99
2023-04-26T19:10:42.929Z,947.02
2023-04-26T19:13:09.402Z,947.08
2023-04-26T19:15:35.835Z,947.07
2023-04-26T19:18:03.113Z,947.04
2023-04-26T19:20:29.556Z,947.07
2023-04-26T19:22:56.051Z,947.10
2023-04-26T19:25:22.489Z,947.10
2023-04-26T19:27:48.940Z,947.14
2023-04-26T19:30:15.382Z,947.21
2023-04-26T19:32:41.901Z,947.15
2023-04-26T19:35:08.132Z,947.19
2023-04-26T19:37:34.611Z,947.18
2023-04-26T19:40:00.967Z,947.21
2023-04-26T19:42:27.425Z,947.23
2023-04-26T19:44:53.825Z,947.17
2023-04-26T19:47:20.338Z,947.29
2023-04-26T19:49:46.722Z,947.26
2023-04-26T19:52:13.277Z,947.27
2023-04-26T19:54:39.659Z,947.33
2023-04-26T19:57:06.081Z,947.35
2023-04-26T19:59:32.502Z,947.29
2023-04-26T20:01:58.934Z,947.36
2023-04-26T20:04:25.570Z,947.42
2023-04-26T20:06:51.921Z,947.41
2023-04-26T20:09:18.301Z,947.48
2023-04-26T20:11:44.731Z,947.46
2023-04-26T20:14:11.123Z,947.44
2023-04-26T20:16:40.140Z,947.46
2023-04-26T20:19:04.050Z,947.55
2023-04-26T20:21:30.426Z,947.46
2023-04-26T20:23:56.805Z,947.49
2023-04-26T20:26:23.212Z,947.46
2023-04-26T20:28:49.679Z,947.50
2023-04-26T20:31:16.103Z,947.48
2023-04-26T20:33:42.515Z,947.52
2023-04-26T20:36:09.162Z,947.48
2023-04-26T20:38:35.617Z,947.55
2023-04-26T20:41:02.033Z,947.48
2023-04-26T20:43:28.444Z,947.52
2023-04-26T20:45:54.949Z,947.55
2023-04-26T20:48:21.325Z,947.40
2023-04-26T20:50:47.746Z,947.55
2023-04-26T20:53:14.165Z,947.62
2023-04-26T20:55:42.156Z,947.64
2023-04-26T20:58:07.041Z,947.66
2023-04-26T21:00:33.393Z,947.73
2023-04-26T21:02:59.988Z,947.67
2023-04-26T21:05:26.240Z,947.78
2023-04-26T21:07:52.702Z,947.68
2023-04-26T21:10:19.066Z,947.82
2023-04-26T21:12:45.430Z,947.79
2023-04-26T21:15:13.701Z,947.83
2023-04-26T21:17:38.307Z,947.82
2023-04-26T21:20:04.720Z,947.84
2023-04-26T21:22:31.219Z,947.90
2023-04-26T21:24:57.580Z,947.99
2023-04-26T21:27:25.081Z,947.96
2023-04-26T21:29:51.607Z,947.99
2023-04-26T21:32:18.051Z,948.03
2023-04-26T21:34:44.474Z,948.02
2023-04-26T21:37:10.892Z,948.04
2023-04-26T21:39:37.333Z,948.08
2023-04-26T21:42:03.739Z,948.17
2023-04-26T21:44:30.180Z,948.12
2023-04-26T21:46:56.741Z,948.17
2023-04-26T21:49:23.012Z,948.18
2023-04-26T21:51:49.495Z,948.22
2023-04-26T21:54:15.931Z,948.30
2023-04-26T21:56:44.496Z,948.28
2023-04-26T21:59:09.020Z,948.29
2023-04-26T22:01:35.264Z,948.24
2023-04-26T22:04:01.811Z,948.24
2023-04-26T22:06:28.119Z,948.27
2023-04-26T22:08:54.538Z,948.34
2023-04-26T22:11:20.963Z,948.35
2023-04-26T22:13:47.406Z,948.36
2023-04-26T22:16:13.845Z,948.45
2023-04-26T22:18:40.283Z,948.45
2023-04-26T22:21:06.748Z,948.48
2023-04-26T22:23:33.183Z,948.57
2023-04-26T22:25:59.614Z,948.52
2023-04-26T22:28:26.027Z,948.53
2023-04-26T22:30:52.507Z,948.61
2023-04-26T22:33:18.869Z,948.61
2023-04-26T22:35:45.254Z,948.65
2023-04-26T22:38:11.689Z,948.70
2023-04-26T22:40:38.114Z,948.65
2023-04-26T22:43:07.977Z,948.67
2023-04-26T22:45:34.392Z,948.67
2023-04-26T22:48:00.785Z,948.63
2023-04-26T22:50:27.219Z,948.68
2023-04-26T22:52:53.580Z,948.65
2023-04-26T22:55:20.085Z,948.66
2023-04-26T22:57:46.497Z,948.67
2023-04-26T23:00:13.005Z,948.71
2023-04-26T23:02:39.523Z,948.67
2023-04-26T23:05:05.914Z,948.63
2023-04-26T23:07:32.394Z,948.73
2023-04-26T23:09:58.814Z,948.66
2023-04-26T23:12:25.327Z,948.68
2023-04-26T23:14:51.747Z,948.61
2023-04-26T23:17:18.283Z,948.68
2023-04-26T23:19:44.600Z,948.66
2023-04-26T23:22:11.041Z,948.60
2023-04-26T23:24:37.674Z,948.58
2023-04-26T23:27:04.058Z,948.58
2023-04-26T23:29:30.476Z,948.62
2023-04-26T23:31:56.918Z,948.60
2023-04-26T23:34:23.478Z,948.61
2023-04-26T23:36:49.981Z,948.59
2023-04-26T23:39:16.466Z,948.64
2023-04-26T23:41:42.927Z,948.54
2023-04-26T23:44:09.385Z,948.60
2023-04-26T23:46:35.805Z,948.66
2023-04-26T23:49:02.151Z,948.63
2023-04-26T23:51:28.548Z,948.62
2023-04-26T23:53:55.049Z,948.71
2023-04-26T23:56:22.539Z,948.61
2023-04-26T23:58:48.974Z,948.67
